Terminal Aerodrome Forecast
Issued by NWS Wilmington, OH

Current Version | Previous Version | Text Only | Print | Product List | Glossary Off
Versions: 1 2 3 4 5 6 7 8 9 10 11 12 13 14 15 16 17 18 19 20 21 22 23 24

000
FTUS41 KILN 231100
TAFILN
TAF
KILN 231136Z 2312/2412 26008KT P6SM VCTS OVC050CB
      TEMPO 2312/2316 33010G18KT 5SM -TSRA BR OVC025CB
     FM231600 29010KT P6SM VCTS OVC040CB
     FM232000 32010KT P6SM BKN060
     FM240000 01009KT P6SM BKN100
     FM241000 02008KT P6SM SCT100=

USA.gov is the U.S. government's official web portal to all federal, state and local government web resources and services.